Time;durP1;ratioP1;P1;durP2;ratioP2;P2;SDS_P1;SDS_P2;PMS_P1;PMS_P2;Temp;Humidity;BMP_temperature;BMP_pressure;BME280_temperature;BME280_humidity;BME280_pressure;Samples;Min_cycle;Max_cycle;Signal;HPM_P1;HPM_P2
2022/02/16 00:01:44;;;;;;;6.30;5.50;;;10.80;99.90;;;;;;5083567;28;20454;-61
2022/02/16 00:04:15;;;;;;;5.70;5.30;;;10.80;99.90;;;;;;5083183;28;20517;-61
2022/02/16 00:06:46;;;;;;;8.33;5.67;;;10.80;99.90;;;;;;5083746;28;20912;-61
2022/02/16 00:09:17;;;;;;;6.97;6.37;;;10.60;99.90;;;;;;5082654;28;20490;-61
2022/02/16 00:11:48;;;;;;;6.23;5.63;;;10.70;99.90;;;;;;5083443;28;20524;-61
2022/02/16 00:14:19;;;;;;;7.93;6.80;;;10.70;99.90;;;;;;5082808;28;20520;-61
2022/02/16 00:16:52;;;;;;;7.57;6.83;;;10.60;99.90;;;;;;5083507;28;20485;-60
2022/02/16 00:19:23;;;;;;;9.00;6.03;;;10.60;99.90;;;;;;5083170;28;20767;-61
2022/02/16 00:21:55;;;;;;;6.30;5.50;;;10.50;99.90;;;;;;5083863;28;20424;-61
2022/02/16 00:24:25;;;;;;;6.80;6.17;;;10.50;99.90;;;;;;5082825;28;20487;-61
2022/02/16 00:26:56;;;;;;;6.00;5.40;;;10.50;99.90;;;;;;5083433;28;20461;-61
2022/02/16 00:29:27;;;;;;;6.63;5.97;;;10.60;99.90;;;;;;5082804;28;20469;-61
2022/02/16 00:32:00;;;;;;;7.07;6.40;;;10.50;99.90;;;;;;5083128;28;20507;-61
2022/02/16 00:34:31;;;;;;;6.40;5.17;;;10.40;99.90;;;;;;5082940;28;20506;-61
2022/02/16 00:37:02;;;;;;;6.80;6.10;;;10.40;99.90;;;;;;5083215;28;20911;-61
2022/02/16 00:39:33;;;;;;;5.57;5.07;;;10.40;99.90;;;;;;5082428;28;20482;-60
2022/02/16 00:42:04;;;;;;;6.23;5.60;;;10.40;99.90;;;;;;5082640;28;20477;-61
2022/02/16 00:44:35;;;;;;;6.40;5.27;;;10.40;99.90;;;;;;5082228;28;20487;-61
2022/02/16 00:47:08;;;;;;;5.77;5.20;;;10.30;99.90;;;;;;5083010;28;20443;-61
2022/02/16 00:49:39;;;;;;;6.37;5.77;;;10.20;99.90;;;;;;5080998;28;20511;-61
2022/02/16 00:52:10;;;;;;;6.33;5.73;;;10.20;99.90;;;;;;5062677;28;20516;-60
2022/02/16 00:54:41;;;;;;;8.13;5.47;;;10.20;99.90;;;;;;5062458;28;20519;-61
2022/02/16 00:57:12;;;;;;;5.00;4.50;;;10.20;99.90;;;;;;5062468;28;20463;-62
2022/02/16 00:59:44;;;;;;;5.37;4.40;;;10.20;99.90;;;;;;5062164;28;20459;-61
2022/02/16 01:02:17;;;;;;;6.60;4.20;;;10.10;99.90;;;;;;5080055;28;20499;-61
2022/02/16 01:04:48;;;;;;;5.73;4.13;;;10.10;99.90;;;;;;5081704;28;20487;-62
2022/02/16 01:07:24;;;;;;;4.20;3.80;;;10.00;99.90;;;;;;5086407;28;20586;-62
2022/02/16 01:09:55;;;;;;;4.40;4.00;;;10.10;99.90;;;;;;5083465;28;20566;-62
2022/02/16 01:12:27;;;;;;;3.83;3.53;;;10.00;99.90;;;;;;5082831;28;20530;-62
2022/02/16 01:14:57;;;;;;;4.03;3.63;;;10.00;99.90;;;;;;5091834;28;20906;-64
2022/02/16 01:17:30;;;;;;;6.07;3.93;;;10.00;99.90;;;;;;5086801;28;20463;-62
2022/02/16 01:20:01;;;;;;;3.20;3.00;;;10.00;99.90;;;;;;5085580;28;20475;-64
2022/02/16 01:22:33;;;;;;;5.03;3.50;;;9.90;99.90;;;;;;5088992;28;20447;-62
2022/02/16 01:25:04;;;;;;;4.43;3.60;;;9.90;99.90;;;;;;5084004;28;20487;-62
2022/02/16 01:27:34;;;;;;;4.10;3.80;;;9.80;99.90;;;;;;5093265;28;20456;-62
2022/02/16 01:30:08;;;;;;;4.53;4.13;;;9.80;99.90;;;;;;5083654;28;20535;-62
2022/02/16 01:32:40;;;;;;;3.90;3.43;;;9.80;99.90;;;;;;5093720;28;20512;-62
2022/02/16 01:35:11;;;;;;;5.30;4.00;;;9.80;99.90;;;;;;5085228;28;20470;-62
2022/02/16 01:37:42;;;;;;;4.57;3.70;;;9.80;99.90;;;;;;5072780;28;20439;-63
2022/02/16 01:40:17;;;;;;;4.57;3.97;;;9.70;99.90;;;;;;5081041;28;20485;-62
2022/02/16 01:42:48;;;;;;;4.43;3.83;;;9.70;99.90;;;;;;5086269;28;21513;-62
2022/02/16 01:45:26;;;;;;;4.87;4.03;;;9.70;99.90;;;;;;5088769;28;20509;-61
2022/02/16 01:47:59;;;;;;;4.30;3.90;;;9.80;99.90;;;;;;5085609;28;20819;-62
2022/02/16 01:50:30;;;;;;;7.10;4.03;;;9.70;99.90;;;;;;5087915;28;20450;-62
2022/02/16 01:53:01;;;;;;;5.43;4.40;;;9.80;99.90;;;;;;5084946;28;20539;-62
2022/02/16 01:55:32;;;;;;;5.33;4.80;;;9.80;99.90;;;;;;5089727;28;20462;-62
2022/02/16 01:58:04;;;;;;;6.80;5.57;;;9.80;99.90;;;;;;5086718;28;20462;-67
2022/02/16 02:00:35;;;;;;;6.30;5.63;;;9.70;99.90;;;;;;5086455;28;20853;-63
2022/02/16 02:03:07;;;;;;;6.23;5.63;;;9.70;99.90;;;;;;5085044;28;20467;-62
2022/02/16 02:05:40;;;;;;;6.63;6.03;;;9.70;99.90;;;;;;5099954;28;20473;-64
2022/02/16 02:08:12;;;;;;;7.33;6.27;;;9.70;99.90;;;;;;5086517;28;20448;-62
2022/02/16 02:10:43;;;;;;;7.10;6.40;;;9.70;99.90;;;;;;5086316;28;20515;-62
2022/02/16 02:13:14;;;;;;;6.67;5.97;;;9.70;99.90;;;;;;5090343;28;20447;-62
2022/02/16 02:15:45;;;;;;;8.60;7.47;;;9.70;99.90;;;;;;5101016;28;20471;-60
2022/02/16 02:18:18;;;;;;;6.93;6.10;;;9.60;99.90;;;;;;5097851;28;20547;-64
2022/02/16 02:20:50;;;;;;;7.60;6.63;;;9.70;99.90;;;;;;5084783;28;20455;-60
2022/02/16 02:23:21;;;;;;;7.63;6.80;;;9.60;99.90;;;;;;5085166;28;20443;-62
2022/02/16 02:25:54;;;;;;;8.40;5.83;;;9.70;99.90;;;;;;5084115;28;20965;-63
2022/02/16 02:28:26;;;;;;;7.60;6.90;;;9.70;99.90;;;;;;5079494;28;20460;-62
2022/02/16 02:30:57;;;;;;;7.60;6.87;;;9.60;99.90;;;;;;5084570;28;20466;-65
2022/02/16 02:33:28;;;;;;;7.27;6.57;;;9.60;99.90;;;;;;5090734;28;20514;-61
2022/02/16 02:36:01;;;;;;;8.50;7.70;;;9.60;99.90;;;;;;5094329;28;20462;-64
2022/02/16 02:38:31;;;;;;;8.83;8.03;;;9.60;99.90;;;;;;5085045;28;20443;-61
2022/02/16 02:41:04;;;;;;;11.10;9.00;;;9.70;99.90;;;;;;5084289;28;21029;-59
2022/02/16 02:43:41;;;;;;;8.87;7.97;;;9.60;99.90;;;;;;5085109;28;20474;-60
2022/02/16 02:46:13;;;;;;;9.83;8.83;;;9.60;99.90;;;;;;5087561;28;20501;-61
2022/02/16 02:48:45;;;;;;;9.37;8.13;;;9.60;99.90;;;;;;5092158;28;20451;-62
2022/02/16 02:51:18;;;;;;;9.60;8.17;;;9.60;99.90;;;;;;5086059;28;20451;-61
2022/02/16 02:53:49;;;;;;;12.60;9.10;;;9.60;99.90;;;;;;5087830;28;20439;-61
2022/02/16 02:56:20;;;;;;;8.27;7.50;;;9.60;99.90;;;;;;5092341;28;20454;-62
2022/02/16 02:58:51;;;;;;;10.37;8.53;;;9.60;99.90;;;;;;5084480;28;20459;-62
2022/02/16 03:01:22;;;;;;;9.47;8.47;;;9.60;99.90;;;;;;5094472;28;20481;-61
2022/02/16 03:03:52;;;;;;;11.83;8.63;;;9.60;99.90;;;;;;5085103;28;20448;-61
2022/02/16 03:06:25;;;;;;;9.63;8.73;;;9.60;99.90;;;;;;5084621;28;20501;-62
2022/02/16 03:08:55;;;;;;;11.30;9.10;;;9.60;99.90;;;;;;5084477;28;20662;-62
2022/02/16 03:11:26;;;;;;;10.77;8.83;;;9.50;99.90;;;;;;5083939;28;20201;-61
2022/02/16 03:13:57;;;;;;;14.35;9.65;;;9.50;99.90;;;;;;5084722;28;21030;-60
2022/02/16 03:16:28;;;;;;;10.30;9.27;;;9.50;99.90;;;;;;5085625;28;20197;-60
2022/02/16 03:18:58;;;;;;;9.70;8.60;;;9.50;99.90;;;;;;5084612;28;20207;-60
2022/02/16 03:21:31;;;;;;;9.63;8.63;;;9.60;99.90;;;;;;5095999;28;20453;-60
2022/02/16 03:24:02;;;;;;;12.15;9.00;;;9.60;99.90;;;;;;5094274;28;20452;-61
2022/02/16 03:26:33;;;;;;;11.00;9.40;;;9.60;99.90;;;;;;5090081;28;20232;-60
2022/02/16 03:29:06;;;;;;;9.83;8.77;;;9.60;99.90;;;;;;5091070;28;20443;-60
2022/02/16 03:31:37;;;;;;;10.10;9.03;;;9.50;99.90;;;;;;5091015;28;20458;-60
2022/02/16 03:34:08;;;;;;;9.83;8.87;;;9.50;99.90;;;;;;5087446;28;20466;-60
2022/02/16 03:36:42;;;;;;;10.48;9.40;;;9.40;99.90;;;;;;5085608;28;20439;-61
2022/02/16 03:39:19;;;;;;;9.00;7.53;;;9.30;99.90;;;;;;5081406;28;20224;-60
2022/02/16 03:41:50;;;;;;;12.45;9.02;;;9.30;99.90;;;;;;5091796;28;20467;-62
2022/02/16 03:44:21;;;;;;;9.80;8.60;;;9.30;99.90;;;;;;5092438;28;20200;-61
2022/02/16 03:46:52;;;;;;;12.00;9.30;;;9.40;99.90;;;;;;5085258;28;20483;-62
2022/02/16 03:49:25;;;;;;;9.90;9.00;;;9.30;99.90;;;;;;5067642;28;20450;-61
2022/02/16 03:51:57;;;;;;;9.70;8.07;;;9.40;99.90;;;;;;5086819;28;20444;-62
2022/02/16 03:54:28;;;;;;;9.50;8.50;;;9.40;99.90;;;;;;5090039;28;20460;-62
2022/02/16 03:56:59;;;;;;;8.60;7.80;;;9.50;99.90;;;;;;5082838;28;20521;-61
2022/02/16 03:59:30;;;;;;;11.70;9.70;;;9.40;99.90;;;;;;5088882;28;20443;-61
2022/02/16 04:02:02;;;;;;;9.50;8.50;;;9.40;99.90;;;;;;5099849;28;20536;-61
2022/02/16 04:04:33;;;;;;;9.60;8.60;;;9.40;99.90;;;;;;5082449;28;20447;-61
2022/02/16 04:07:06;;;;;;;10.30;7.83;;;9.30;99.90;;;;;;5099762;28;20523;-62
2022/02/16 04:09:38;;;;;;;9.27;8.47;;;9.30;99.90;;;;;;5092481;28;20446;-62
2022/02/16 04:12:10;;;;;;;8.67;7.87;;;9.30;99.90;;;;;;5089741;28;20447;-62
2022/02/16 04:14:41;;;;;;;9.93;9.03;;;9.30;99.90;;;;;;5083339;28;20452;-61
2022/02/16 04:17:11;;;;;;;8.00;6.97;;;9.40;99.90;;;;;;5083468;28;20443;-62
2022/02/16 04:19:42;;;;;;;13.83;8.13;;;9.30;99.90;;;;;;5084190;28;20441;-62
2022/02/16 04:22:16;;;;;;;8.60;7.50;;;9.20;99.90;;;;;;5088929;28;20427;-62
2022/02/16 04:24:47;;;;;;;8.23;7.53;;;9.20;99.90;;;;;;5082041;28;20767;-62
2022/02/16 04:27:18;;;;;;;8.48;7.60;;;9.30;99.90;;;;;;5096862;28;20500;-63
2022/02/16 04:29:49;;;;;;;8.40;7.23;;;9.20;99.90;;;;;;5084957;28;20241;-62
2022/02/16 04:32:20;;;;;;;9.63;8.63;;;9.20;99.90;;;;;;5090850;28;20447;-62
2022/02/16 04:34:50;;;;;;;8.53;7.77;;;9.20;99.90;;;;;;5092653;28;20453;-63
2022/02/16 04:37:23;;;;;;;8.93;8.13;;;9.20;99.90;;;;;;5089975;28;20431;-63
2022/02/16 04:39:54;;;;;;;11.50;7.90;;;9.20;99.90;;;;;;5084722;28;20640;-63
2022/02/16 04:42:25;;;;;;;9.55;8.52;;;9.20;99.90;;;;;;5061024;28;20445;-63
2022/02/16 04:44:55;;;;;;;10.35;9.25;;;9.20;99.90;;;;;;5060580;28;20308;-62
2022/02/16 04:47:26;;;;;;;9.60;8.70;;;9.30;99.90;;;;;;5072957;28;20217;-62
2022/02/16 04:49:57;;;;;;;9.10;8.20;;;9.30;99.90;;;;;;5076137;28;20205;-67
2022/02/16 04:52:34;;;;;;;10.65;9.65;;;9.30;99.90;;;;;;5062382;28;20536;-64
2022/02/16 04:55:07;;;;;;;9.63;8.73;;;9.30;99.90;;;;;;5056446;28;20202;-64
2022/02/16 04:57:39;;;;;;;8.43;7.63;;;9.20;99.90;;;;;;5074767;28;20463;-70
2022/02/16 05:00:11;;;;;;;11.50;8.57;;;9.20;99.90;;;;;;5061473;28;20476;-62
2022/02/16 05:02:42;;;;;;;9.48;8.52;;;9.20;99.90;;;;;;5062283;28;20575;-63
2022/02/16 05:05:14;;;;;;;8.27;7.47;;;9.30;99.90;;;;;;5060418;28;20202;-62
2022/02/16 05:07:47;;;;;;;9.07;7.70;;;9.20;99.90;;;;;;5064461;28;20475;-62
2022/02/16 05:10:17;;;;;;;10.90;7.90;;;9.20;99.90;;;;;;5062482;28;20482;-63
2022/02/16 05:12:48;;;;;;;8.00;7.20;;;9.20;99.90;;;;;;5060894;28;20444;-63
2022/02/16 05:15:19;;;;;;;13.43;8.07;;;9.20;99.90;;;;;;5063562;28;20451;-63
2022/02/16 05:17:50;;;;;;;7.70;6.90;;;9.20;99.90;;;;;;5064608;28;20559;-64
2022/02/16 05:20:21;;;;;;;9.00;8.15;;;9.10;99.90;;;;;;5063954;28;20455;-64
2022/02/16 05:22:54;;;;;;;8.00;7.20;;;9.10;99.90;;;;;;5067733;28;20186;-63
2022/02/16 05:25:25;;;;;;;11.60;7.55;;;9.20;99.90;;;;;;5068149;28;20448;-63
2022/02/16 05:27:56;;;;;;;7.40;6.77;;;9.10;99.90;;;;;;5067477;28;20232;-63
2022/02/16 05:30:30;;;;;;;10.70;7.57;;;9.00;99.90;;;;;;5063210;28;20563;-63
2022/02/16 05:33:02;;;;;;;7.90;7.10;;;9.00;99.90;;;;;;5065685;28;20474;-64
2022/02/16 05:35:34;;;;;;;9.23;8.30;;;9.00;99.90;;;;;;5063085;28;20313;-63
2022/02/16 05:38:07;;;;;;;7.90;7.10;;;9.00;99.90;;;;;;5061796;28;20447;-62
2022/02/16 05:40:38;;;;;;;8.00;6.93;;;9.00;99.90;;;;;;5075529;28;20489;-63
2022/02/16 05:43:10;;;;;;;9.50;7.63;;;9.10;99.90;;;;;;5083927;28;20535;-64
2022/02/16 05:45:42;;;;;;;8.60;6.83;;;9.00;99.90;;;;;;5082973;28;20454;-63
2022/02/16 05:48:19;;;;;;;8.30;7.60;;;9.00;99.90;;;;;;5084658;28;20507;-63
2022/02/16 05:50:51;;;;;;;7.77;6.97;;;9.00;99.90;;;;;;5084642;28;20454;-63
2022/02/16 05:53:23;;;;;;;10.63;7.63;;;9.10;99.90;;;;;;5084757;28;20436;-63
2022/02/16 05:56:00;;;;;;;9.10;6.50;;;9.10;99.90;;;;;;5083872;28;20535;-64
2022/02/16 05:58:31;;;;;;;8.33;6.57;;;9.10;99.90;;;;;;5086319;28;20443;-62
2022/02/16 06:01:03;;;;;;;8.15;7.35;;;9.10;99.90;;;;;;5084178;28;20459;-61
2022/02/16 06:03:34;;;;;;;6.47;5.73;;;9.10;99.90;;;;;;5083907;28;20225;-63
2022/02/16 06:06:05;;;;;;;6.70;5.80;;;9.10;99.90;;;;;;5081429;28;20444;-64
2022/02/16 06:08:37;;;;;;;8.30;7.50;;;9.10;99.90;;;;;;5085432;28;20498;-62
2022/02/16 06:11:10;;;;;;;6.40;5.80;;;9.10;99.90;;;;;;5082271;28;20452;-63
2022/02/16 06:13:41;;;;;;;8.53;6.60;;;9.20;99.90;;;;;;5079480;28;20448;-63
2022/02/16 06:16:12;;;;;;;6.55;5.93;;;9.20;99.90;;;;;;5085700;28;20462;-63
2022/02/16 06:18:43;;;;;;;8.03;5.87;;;9.10;99.90;;;;;;5089368;28;20216;-62
2022/02/16 06:21:14;;;;;;;6.17;5.37;;;9.00;99.90;;;;;;5087527;28;20462;-61
2022/02/16 06:23:48;;;;;;;6.57;5.93;;;8.90;99.90;;;;;;5087866;28;20463;-62
2022/02/16 06:26:19;;;;;;;8.10;5.80;;;8.90;99.90;;;;;;5079547;28;20930;-62
2022/02/16 06:28:49;;;;;;;8.13;6.03;;;8.90;99.90;;;;;;5087306;28;20482;-62
2022/02/16 06:31:20;;;;;;;5.87;5.23;;;9.00;99.90;;;;;;5077398;28;20458;-62
2022/02/16 06:33:51;;;;;;;7.97;6.15;;;9.00;99.90;;;;;;5085344;28;20462;-62
2022/02/16 06:36:23;;;;;;;7.80;6.20;;;8.90;99.90;;;;;;5084824;28;20193;-63
2022/02/16 06:38:56;;;;;;;8.63;7.00;;;8.90;99.90;;;;;;5092672;28;20501;-63
2022/02/16 06:41:28;;;;;;;8.33;6.47;;;8.80;99.90;;;;;;5093522;28;20475;-63
2022/02/16 06:43:59;;;;;;;6.97;6.10;;;8.80;99.90;;;;;;5098745;28;20525;-63
2022/02/16 06:46:30;;;;;;;8.93;6.43;;;8.90;99.90;;;;;;5079619;28;20686;-62
2022/02/16 06:49:01;;;;;;;8.37;7.57;;;9.00;99.90;;;;;;5085350;28;20498;-63
2022/02/16 06:51:33;;;;;;;10.50;7.57;;;9.00;99.90;;;;;;5085741;28;20443;-63
2022/02/16 06:54:05;;;;;;;10.38;7.47;;;9.00;99.90;;;;;;5088851;28;20455;-63
2022/02/16 06:56:36;;;;;;;10.05;6.80;;;8.90;99.90;;;;;;5083781;28;20216;-63
2022/02/16 06:59:07;;;;;;;12.67;7.47;;;9.00;99.90;;;;;;5092002;28;20213;-63
2022/02/16 07:01:38;;;;;;;9.60;6.70;;;8.90;99.90;;;;;;5086985;28;20470;-63
2022/02/16 07:04:09;;;;;;;9.07;6.13;;;8.90;99.90;;;;;;5091463;28;20461;-62
2022/02/16 07:06:40;;;;;;;7.27;5.50;;;8.90;99.90;;;;;;5086796;28;20546;-63
2022/02/16 07:09:13;;;;;;;11.13;5.22;;;8.90;99.90;;;;;;5085844;28;20478;-62
2022/02/16 07:11:44;;;;;;;8.38;4.88;;;9.00;99.90;;;;;;5082714;28;20198;-62
2022/02/16 07:14:16;;;;;;;9.57;5.40;;;8.90;99.90;;;;;;5082931;28;20281;-63
2022/02/16 07:16:47;;;;;;;5.43;4.80;;;9.00;99.90;;;;;;5084614;28;20449;-63
2022/02/16 07:19:19;;;;;;;5.28;4.72;;;8.90;99.90;;;;;;5085964;28;20204;-63
2022/02/16 07:21:50;;;;;;;6.82;5.10;;;8.90;99.90;;;;;;5091614;28;20189;-62
2022/02/16 07:24:23;;;;;;;8.85;5.30;;;8.80;99.90;;;;;;5092469;28;20654;-63
2022/02/16 07:26:55;;;;;;;5.15;4.65;;;8.80;99.90;;;;;;5079292;28;20200;-63
2022/02/16 07:29:26;;;;;;;4.80;4.30;;;8.70;99.90;;;;;;5073415;28;20273;-63
2022/02/16 07:31:57;;;;;;;7.50;5.23;;;8.70;99.90;;;;;;5086438;28;20206;-63
2022/02/16 07:34:30;;;;;;;6.73;4.50;;;8.70;99.90;;;;;;5088053;28;20450;-63
2022/02/16 07:37:03;;;;;;;7.78;5.60;;;8.80;99.90;;;;;;5086532;28;20444;-63
2022/02/16 07:39:35;;;;;;;9.48;4.47;;;8.70;99.90;;;;;;5084980;28;20220;-63
2022/02/16 07:42:07;;;;;;;6.20;4.50;;;8.70;99.90;;;;;;5084286;28;20229;-63
2022/02/16 07:44:38;;;;;;;5.27;4.40;;;8.70;99.90;;;;;;5090197;28;20228;-63
2022/02/16 07:47:09;;;;;;;4.28;3.83;;;8.70;99.90;;;;;;5085497;28;20565;-63
2022/02/16 07:49:40;;;;;;;7.63;5.10;;;8.60;99.90;;;;;;5083218;28;20215;-63
2022/02/16 07:52:12;;;;;;;7.10;5.00;;;8.50;99.90;;;;;;5084517;28;20272;-63
2022/02/16 07:54:44;;;;;;;9.03;4.50;;;8.50;99.90;;;;;;5085131;28;20197;-63
2022/02/16 07:57:15;;;;;;;9.13;4.20;;;8.40;99.90;;;;;;5093994;28;20465;-63
2022/02/16 07:59:46;;;;;;;8.38;4.70;;;8.40;99.90;;;;;;5084358;28;20205;-63
2022/02/16 08:02:17;;;;;;;5.70;4.83;;;8.30;99.90;;;;;;5087916;28;20587;-63
2022/02/16 08:04:48;;;;;;;5.65;5.15;;;8.40;99.90;;;;;;5088469;28;20757;-63
2022/02/16 08:07:19;;;;;;;8.38;5.25;;;8.40;99.90;;;;;;5088264;28;20215;-63
2022/02/16 08:09:51;;;;;;;10.23;5.45;;;8.40;99.90;;;;;;5084015;28;20209;-63
2022/02/16 08:12:22;;;;;;;4.88;3.92;;;8.30;99.90;;;;;;5086046;28;20196;-63
2022/02/16 08:14:53;;;;;;;9.37;4.40;;;8.40;99.90;;;;;;5090584;28;20201;-61
2022/02/16 08:17:23;;;;;;;8.90;4.43;;;8.40;99.90;;;;;;5089445;28;20459;-61
2022/02/16 08:19:54;;;;;;;8.65;4.30;;;8.40;99.90;;;;;;5079674;28;20205;-62
2022/02/16 08:22:25;;;;;;;4.78;4.30;;;8.40;99.90;;;;;;5094447;28;20518;-62
2022/02/16 08:24:57;;;;;;;5.03;4.47;;;8.30;99.90;;;;;;5085487;28;20219;-62
2022/02/16 08:27:28;;;;;;;6.38;4.47;;;8.30;99.90;;;;;;5086155;28;20201;-62
2022/02/16 08:29:59;;;;;;;6.82;4.20;;;8.30;99.90;;;;;;5082859;28;20217;-62
2022/02/16 08:32:30;;;;;;;7.18;3.85;;;8.30;99.90;;;;;;5078483;28;20193;-62
2022/02/16 08:35:01;;;;;;;6.25;3.90;;;8.30;99.90;;;;;;5084076;28;20186;-63
2022/02/16 08:37:32;;;;;;;4.85;4.45;;;8.20;99.90;;;;;;5085030;28;20230;-62
2022/02/16 08:40:05;;;;;;;6.18;5.30;;;8.20;99.90;;;;;;5085818;28;20201;-63
2022/02/16 08:42:37;;;;;;;5.53;4.22;;;8.20;99.90;;;;;;5090582;28;20197;-62
2022/02/16 08:45:08;;;;;;;7.25;4.43;;;8.20;99.90;;;;;;5090610;28;20205;-63
2022/02/16 08:47:41;;;;;;;6.55;4.10;;;8.20;99.90;;;;;;5085313;28;20248;-62
2022/02/16 08:50:13;;;;;;;5.07;4.10;;;8.00;99.90;;;;;;5085453;28;20201;-63
2022/02/16 08:52:43;;;;;;;6.07;3.90;;;8.00;99.90;;;;;;5088004;28;20185;-62
2022/02/16 08:55:16;;;;;;;7.38;4.40;;;8.00;99.90;;;;;;5096300;28;20200;-62
2022/02/16 08:57:46;;;;;;;6.45;3.88;;;8.00;99.90;;;;;;5099579;28;20208;-62
2022/02/16 09:00:18;;;;;;;6.05;4.05;;;8.10;99.90;;;;;;5090482;28;20188;-62
2022/02/16 09:02:49;;;;;;;11.88;5.28;;;8.10;99.90;;;;;;5103691;28;20204;-62
2022/02/16 09:05:20;;;;;;;5.55;3.92;;;8.10;99.90;;;;;;5094645;28;20185;-62
2022/02/16 09:07:50;;;;;;;4.55;3.50;;;8.10;99.90;;;;;;5085015;28;20529;-62
2022/02/16 09:10:23;;;;;;;12.20;4.57;;;8.10;99.90;;;;;;5095549;28;20264;-62
2022/02/16 09:12:54;;;;;;;7.80;3.80;;;8.10;99.90;;;;;;5087761;28;20208;-62
2022/02/16 09:15:26;;;;;;;6.27;4.00;;;8.00;99.90;;;;;;5089171;28;20240;-62
2022/02/16 09:17:58;;;;;;;5.72;3.58;;;8.00;99.90;;;;;;5089671;28;20501;-62
2022/02/16 09:20:29;;;;;;;5.05;3.67;;;8.10;99.90;;;;;;5095290;28;20268;-62
2022/02/16 09:23:00;;;;;;;7.85;4.25;;;8.10;99.90;;;;;;5086087;28;20217;-62
2022/02/16 09:25:32;;;;;;;5.85;3.70;;;8.20;99.90;;;;;;5085790;28;20314;-61
2022/02/16 09:28:03;;;;;;;6.28;4.22;;;8.20;99.90;;;;;;5093127;28;20213;-61
2022/02/16 09:30:34;;;;;;;5.30;3.85;;;8.10;99.90;;;;;;5087382;28;20209;-62
2022/02/16 09:33:05;;;;;;;4.70;3.53;;;8.00;99.90;;;;;;5088303;28;20192;-62
2022/02/16 09:35:36;;;;;;;7.85;3.63;;;8.10;99.90;;;;;;5094649;28;20191;-62
2022/02/16 09:38:11;;;;;;;6.00;3.70;;;8.10;99.90;;;;;;5081970;28;20205;-61
2022/02/16 09:40:46;;;;;;;11.05;3.95;;;8.10;99.90;;;;;;5088170;28;20239;-61
2022/02/16 09:43:21;;;;;;;6.78;3.30;;;8.00;99.90;;;;;;5090058;28;20201;-61
2022/02/16 09:45:55;;;;;;;5.47;3.60;;;8.10;99.90;;;;;;5101766;28;20210;-62
2022/02/16 09:48:26;;;;;;;8.90;3.95;;;8.00;99.90;;;;;;5090769;28;20476;-62
2022/02/16 09:50:59;;;;;;;5.35;3.67;;;8.00;99.90;;;;;;5096340;28;20265;-61
2022/02/16 09:53:33;;;;;;;3.92;3.05;;;8.00;99.90;;;;;;5085636;28;20198;-62
2022/02/16 09:56:12;;;;;;;6.03;3.65;;;8.10;99.90;;;;;;5087650;28;20243;-61
2022/02/16 09:58:43;;;;;;;7.32;3.30;;;8.20;99.90;;;;;;5094313;28;20216;-61
2022/02/16 10:01:16;;;;;;;5.22;3.47;;;8.10;99.90;;;;;;5086970;28;20212;-61
2022/02/16 10:04:01;;;;;;;6.80;3.47;;;8.10;99.90;;;;;;5089315;28;20647;-62
2022/02/16 10:06:40;;;;;;;7.40;3.60;;;8.00;99.90;;;;;;5087258;28;20455;-61
2022/02/16 10:09:25;;;;;;;5.88;2.97;;;8.10;99.90;;;;;;5082366;28;20220;-62
2022/02/16 10:12:00;;;;;;;8.60;3.90;;;8.20;99.90;;;;;;5085383;28;20189;-61
2022/02/16 10:14:32;;;;;;;5.45;3.50;;;8.10;99.90;;;;;;5086104;28;20196;-62
2022/02/16 10:17:18;;;;;;;5.05;3.63;;;8.10;99.90;;;;;;5087784;28;20304;-62
2022/02/16 10:19:50;;;;;;;4.47;3.15;;;8.00;99.90;;;;;;5078493;28;20205;-62
2022/02/16 10:22:22;;;;;;;6.10;3.20;;;8.00;99.90;;;;;;5086119;28;20207;-62
2022/02/16 10:24:54;;;;;;;6.32;2.80;;;8.00;99.90;;;;;;5088568;28;20621;-61
2022/02/16 10:27:26;;;;;;;8.30;4.20;;;8.00;99.90;;;;;;5099005;28;20201;-61
2022/02/16 10:29:57;;;;;;;6.78;3.20;;;8.10;99.90;;;;;;5090191;28;20235;-62
2022/02/16 10:32:30;;;;;;;11.45;3.40;;;8.00;99.90;;;;;;5091031;28;20201;-61
2022/02/16 10:35:01;;;;;;;7.13;3.57;;;8.00;99.90;;;;;;5084348;28;20212;-62
2022/02/16 10:37:33;;;;;;;9.03;3.30;;;7.90;99.90;;;;;;5085232;28;20559;-62
2022/02/16 10:40:11;;;;;;;8.35;2.97;;;7.90;99.90;;;;;;5083161;28;20456;-62
2022/02/16 10:42:56;;;;;;;7.43;3.63;;;7.90;99.90;;;;;;5091787;28;20200;-61
2022/02/16 10:45:28;;;;;;;5.47;3.95;;;8.00;99.90;;;;;;5084791;28;20527;-62
2022/02/16 10:48:02;;;;;;;5.35;2.63;;;7.90;99.90;;;;;;5085376;28;20205;-62
2022/02/16 10:50:37;;;;;;;9.55;3.90;;;7.80;99.90;;;;;;5079785;28;20613;-62
2022/02/16 10:53:09;;;;;;;5.93;3.25;;;7.80;99.90;;;;;;5086188;28;20197;-61
2022/02/16 10:55:47;;;;;;;10.15;3.20;;;7.80;99.90;;;;;;5090042;28;20211;-62
2022/02/16 10:58:21;;;;;;;10.80;3.60;;;7.80;99.90;;;;;;5086530;28;20196;-62
2022/02/16 11:00:53;;;;;;;7.60;3.30;;;7.70;99.90;;;;;;5083982;28;20203;-62
2022/02/16 11:03:32;;;;;;;8.27;3.83;;;7.70;99.90;;;;;;5088824;28;20644;-62
2022/02/16 11:06:07;;;;;;;6.18;3.10;;;7.70;99.90;;;;;;5086051;28;20207;-61
2022/02/16 11:08:38;;;;;;;11.88;3.50;;;7.70;99.90;;;;;;5085039;28;20269;-61
2022/02/16 11:11:29;;;;;;;7.93;3.05;;;7.80;99.90;;;;;;5082897;28;20216;-62
2022/02/16 11:14:05;;;;;;;8.13;4.15;;;7.70;99.90;;;;;;5088122;28;20268;-62
2022/02/16 11:16:38;;;;;;;8.13;3.70;;;7.70;99.90;;;;;;5091748;28;20256;-62
2022/02/16 11:19:23;;;;;;;8.10;3.20;;;7.70;99.90;;;;;;5098078;28;20226;-61
2022/02/16 11:22:06;;;;;;;10.90;4.30;;;7.80;99.90;;;;;;5078255;28;20268;-61
2022/02/16 11:24:38;;;;;;;6.70;3.38;;;7.80;99.90;;;;;;5090851;28;20691;-61
2022/02/16 11:27:29;;;;;;;10.15;4.07;;;7.80;99.90;;;;;;5084529;28;20207;-62
2022/02/16 11:30:03;;;;;;;7.00;3.83;;;7.80;99.90;;;;;;5092183;28;20228;-62
2022/02/16 11:32:36;;;;;;;10.52;3.92;;;7.80;99.90;;;;;;5094979;28;20207;-62
2022/02/16 11:35:19;;;;;;;7.03;4.45;;;7.80;99.90;;;;;;5097023;28;20203;-62
2022/02/16 11:37:52;;;;;;;4.85;3.50;;;7.70;99.90;;;;;;5087796;28;20184;-62
2022/02/16 11:40:37;;;;;;;10.13;4.38;;;7.60;99.90;;;;;;5090109;28;20225;-62
2022/02/16 11:43:10;;;;;;;11.35;4.60;;;7.60;99.90;;;;;;5085217;28;20196;-62
2022/02/16 11:45:58;;;;;;;9.77;4.00;;;7.60;99.90;;;;;;5084961;28;20201;-62
2022/02/16 11:48:48;;;;;;;10.27;5.05;;;7.50;99.90;;;;;;5083176;28;20233;-61
2022/02/16 11:51:43;;;;;;;7.40;4.65;;;7.40;99.90;;;;;;5087845;28;20224;-61
2022/02/16 11:54:55;;;;;;;8.65;5.03;;;7.40;99.90;;;;;;5079327;28;20269;-61
2022/02/16 11:57:42;;;;;;;11.25;5.63;;;7.30;99.90;;;;;;5089838;28;20239;-62
2022/02/16 12:00:28;;;;;;;12.15;5.50;;;7.30;99.90;;;;;;5096674;28;20207;-61
2022/02/16 12:03:18;;;;;;;9.50;5.88;;;7.20;99.90;;;;;;5087173;28;20204;-61
2022/02/16 12:06:07;;;;;;;13.88;4.97;;;7.30;99.90;;;;;;5083630;28;20665;-61
2022/02/16 12:08:44;;;;;;;7.20;5.55;;;7.40;99.90;;;;;;5090970;28;20300;-61
2022/02/16 12:11:25;;;;;;;12.02;5.70;;;7.30;99.90;;;;;;5092004;28;20273;-61
2022/02/16 12:14:01;;;;;;;9.20;5.63;;;7.40;99.90;;;;;;5094384;28;20206;-61
2022/02/16 12:16:34;;;;;;;17.08;6.95;;;7.30;99.90;;;;;;5083413;28;20306;-61
2022/02/16 12:19:08;;;;;;;13.45;5.93;;;7.40;99.90;;;;;;5091627;28;20223;-61
2022/02/16 12:21:42;;;;;;;9.90;5.28;;;7.40;99.90;;;;;;5085828;28;20199;-61
2022/02/16 12:24:14;;;;;;;10.63;5.30;;;7.40;99.90;;;;;;5081885;28;20196;-61
2022/02/16 12:26:47;;;;;;;8.93;5.75;;;7.40;99.90;;;;;;5082434;28;20655;-61
2022/02/16 12:29:20;;;;;;;13.50;5.40;;;7.30;99.90;;;;;;5082539;28;20196;-61
2022/02/16 12:31:52;;;;;;;12.02;5.72;;;7.30;99.90;;;;;;5091946;28;20231;-61
2022/02/16 12:34:27;;;;;;;9.18;4.50;;;7.30;99.90;;;;;;5096639;28;20198;-61
2022/02/16 12:37:03;;;;;;;9.80;5.55;;;7.30;99.90;;;;;;5075487;28;20242;-61
2022/02/16 12:39:35;;;;;;;8.98;5.45;;;7.30;99.90;;;;;;5084604;28;20651;-61
2022/02/16 12:42:08;;;;;;;9.40;5.28;;;7.30;99.90;;;;;;5087800;28;20230;-61
2022/02/16 12:44:42;;;;;;;11.70;4.63;;;7.30;99.90;;;;;;5092141;28;20255;-61
2022/02/16 12:47:13;;;;;;;7.93;4.25;;;7.30;99.90;;;;;;5082311;28;20194;-61
2022/02/16 12:49:45;;;;;;;8.23;3.85;;;7.30;99.90;;;;;;5091883;28;20209;-61
2022/02/16 12:52:16;;;;;;;13.93;4.93;;;7.40;99.90;;;;;;5082244;28;20246;-61
2022/02/16 12:54:48;;;;;;;14.40;4.68;;;7.40;99.90;;;;;;5076744;28;20201;-62
2022/02/16 12:57:20;;;;;;;7.20;4.95;;;7.40;99.90;;;;;;5084848;28;20228;-62
2022/02/16 13:02:39;;;;;;;12.60;5.97;;;7.50;99.90;;;;;;5084543;28;20185;-62
2022/02/16 13:05:12;;;;;;;14.95;5.35;;;7.50;99.90;;;;;;5085295;28;20207;-62
2022/02/16 13:07:44;;;;;;;9.00;4.55;;;7.50;99.90;;;;;;5089806;28;20300;-62
2022/02/16 13:10:21;;;;;;;5.35;4.25;;;7.40;99.90;;;;;;5087820;28;20681;-62
2022/02/16 13:12:52;;;;;;;11.70;5.03;;;7.40;99.90;;;;;;5082541;28;20198;-62
2022/02/16 13:15:24;;;;;;;9.20;5.03;;;7.40;99.90;;;;;;5080531;28;20201;-61
2022/02/16 13:17:56;;;;;;;15.20;5.35;;;7.50;99.90;;;;;;5085103;28;20186;-60
2022/02/16 13:20:32;;;;;;;16.15;5.53;;;7.50;99.90;;;;;;5094394;28;20371;-59
2022/02/16 13:23:06;;;;;;;9.13;5.82;;;7.50;99.90;;;;;;5087869;28;20193;-60
2022/02/16 13:25:38;;;;;;;9.15;5.07;;;7.50;99.90;;;;;;5081295;28;20647;-61